createdAt,value
2019-03-13T00:05:19.008Z,97195.53
2019-03-13T00:09:24.772Z,97221.30
2019-03-13T00:13:30.599Z,97235.37
2019-03-13T00:17:36.453Z,97260.73
2019-03-13T00:21:42.145Z,97271.77
2019-03-13T00:25:47.840Z,97291.92
2019-03-13T00:29:53.529Z,97325.77
2019-03-13T00:33:59.226Z,97360.16
2019-03-13T00:38:04.924Z,97346.58
2019-03-13T00:42:10.688Z,97345.03
2019-03-13T00:46:17.391Z,97377.33
2019-03-13T00:50:30.239Z,97416.70
2019-03-13T00:54:35.902Z,97435.03
2019-03-13T00:58:41.582Z,97454.97
2019-03-13T01:02:48.913Z,97448.83
2019-03-13T01:06:56.381Z,97484.20
2019-03-13T01:11:02.069Z,97510.64
2019-03-13T01:15:10.398Z,97499.34
2019-03-13T01:19:16.066Z,97501.05
2019-03-13T01:23:21.759Z,97509.97
2019-03-13T01:27:27.442Z,97554.86
2019-03-13T01:31:40.483Z,97567.04
2019-03-13T01:35:50.219Z,97591.48
2019-03-13T01:39:55.912Z,97596.22
2019-03-13T01:44:01.585Z,97623.63
2019-03-13T01:48:07.279Z,97606.22
2019-03-13T01:52:12.970Z,97602.63
2019-03-13T01:56:18.651Z,97606.50
2019-03-13T02:00:24.321Z,97611.00
2019-03-13T02:04:30.070Z,97624.00
2019-03-13T02:08:35.809Z,97631.28
2019-03-13T02:12:41.556Z,97634.38
2019-03-13T02:16:47.360Z,97637.42
2019-03-13T02:20:53.022Z,97642.58
2019-03-13T02:24:58.705Z,97642.98
2019-03-13T02:29:04.523Z,97648.17
2019-03-13T02:33:10.274Z,97651.15
2019-03-13T02:37:16.024Z,97635.86
2019-03-13T02:41:21.700Z,97649.25
2019-03-13T02:45:27.381Z,97669.39
2019-03-13T02:49:33.079Z,97674.92
2019-03-13T02:53:38.745Z,97685.91
2019-03-13T02:57:44.447Z,97695.25
2019-03-13T03:01:51.841Z,97704.84
2019-03-13T03:05:59.513Z,97694.67
2019-03-13T03:10:08.900Z,97691.19
2019-03-13T03:14:14.602Z,97686.69
2019-03-13T03:18:20.273Z,97690.48
2019-03-13T03:22:25.932Z,97697.38
2019-03-13T03:26:31.615Z,97698.27
2019-03-13T03:30:37.303Z,97691.80
2019-03-13T03:34:42.963Z,97699.50
2019-03-13T03:38:48.654Z,97703.99
2019-03-13T03:42:54.349Z,97697.50
2019-03-13T03:47:00.008Z,97708.57
2019-03-13T03:51:05.695Z,97730.23
2019-03-13T03:55:14.693Z,97748.50
2019-03-13T03:59:20.347Z,97755.27
2019-03-13T04:03:26.053Z,97761.97
2019-03-13T04:07:31.798Z,97762.19
2019-03-13T04:11:37.483Z,97746.13
2019-03-13T04:15:43.358Z,97738.05
2019-03-13T04:19:49.102Z,97742.69
2019-03-13T04:23:55.021Z,97739.78
2019-03-13T04:28:00.878Z,97743.25
2019-03-13T04:32:06.568Z,97749.63
2019-03-13T04:36:12.230Z,97755.53
2019-03-13T04:40:19.536Z,97771.26
2019-03-13T04:44:25.213Z,97799.25
2019-03-13T04:48:30.890Z,97810.98
2019-03-13T04:52:36.638Z,97812.30
2019-03-13T04:56:42.335Z,97813.86
2019-03-13T05:00:48.104Z,97818.27
2019-03-13T05:04:53.764Z,97824.69
2019-03-13T05:09:00.960Z,97826.08
2019-03-13T05:13:08.368Z,97817.53
2019-03-13T05:17:14.053Z,97817.64
2019-03-13T05:21:19.745Z,97817.55
2019-03-13T05:25:25.426Z,97808.08
2019-03-13T05:29:31.113Z,97802.12
2019-03-13T05:33:36.784Z,97799.48
2019-03-13T05:37:42.453Z,97806.55
2019-03-13T05:41:48.232Z,97796.19
2019-03-13T05:45:53.897Z,97799.88
2019-03-13T05:49:59.578Z,97797.86
2019-03-13T05:54:05.421Z,97802.41
2019-03-13T05:58:11.155Z,97811.98
2019-03-13T06:02:16.826Z,97818.86
2019-03-13T06:06:22.513Z,97817.06
2019-03-13T06:10:28.246Z,97822.48
2019-03-13T06:14:33.900Z,97809.70
2019-03-13T06:18:40.643Z,97806.09
2019-03-13T06:22:46.499Z,97802.53
2019-03-13T06:26:52.177Z,97808.80
2019-03-13T06:30:57.855Z,97807.18
2019-03-13T06:35:03.583Z,97814.75
2019-03-13T06:39:09.257Z,97807.01
2019-03-13T06:43:14.943Z,97800.52
2019-03-13T06:47:20.648Z,97792.77
2019-03-13T06:51:26.314Z,97808.75
2019-03-13T06:55:32.044Z,97811.70
2019-03-13T06:59:39.405Z,97800.19
2019-03-13T07:03:46.757Z,97801.20
2019-03-13T07:08:03.186Z,97789.25
2019-03-13T07:12:17.498Z,97786.73
2019-03-13T07:16:24.806Z,97800.94
2019-03-13T07:20:32.152Z,97793.48
2019-03-13T07:24:44.955Z,97799.48
2019-03-13T07:28:52.659Z,97791.37
2019-03-13T07:33:08.726Z,97788.69
2019-03-13T07:37:14.178Z,97787.77
2019-03-13T07:41:21.557Z,97789.88
2019-03-13T07:45:28.968Z,97774.50
2019-03-13T07:49:41.855Z,97778.44
2019-03-13T07:53:49.226Z,97765.00
2019-03-13T07:58:05.488Z,97756.44
2019-03-13T08:02:12.820Z,97756.13
2019-03-13T08:06:36.024Z,97779.34
2019-03-13T08:11:01.285Z,97773.94
2019-03-13T08:15:13.548Z,97778.00
2019-03-13T08:19:24.739Z,97768.44
2019-03-13T08:23:32.878Z,97780.29
2019-03-13T08:27:41.086Z,97776.78
2019-03-13T08:31:57.608Z,97787.14
2019-03-13T08:36:16.764Z,97788.60
2019-03-13T08:40:40.180Z,97808.70
2019-03-13T08:44:50.555Z,97801.52
2019-03-13T08:48:57.889Z,97807.67
2019-03-13T08:53:14.203Z,97793.64
2019-03-13T08:57:21.532Z,97785.38
2019-03-13T09:01:34.772Z,97787.66
2019-03-13T09:05:44.849Z,97800.59
2019-03-13T09:10:05.334Z,97789.23
2019-03-13T09:14:10.794Z,97782.91
2019-03-13T09:18:30.211Z,97778.41
2019-03-13T09:22:53.801Z,97768.11
2019-03-13T09:27:17.315Z,97788.30
2019-03-13T09:31:27.477Z,97758.21
2019-03-13T09:35:50.828Z,97737.83
2019-03-13T09:40:07.204Z,97730.03
2019-03-13T09:44:23.562Z,97733.51
2019-03-13T09:48:33.560Z,97738.07
2019-03-13T09:52:43.489Z,97728.53
2019-03-13T09:56:50.858Z,97731.86
2019-03-13T10:01:03.956Z,97727.95
2019-03-13T10:05:14.560Z,97710.17
2019-03-13T10:09:24.599Z,97713.31
2019-03-13T10:13:34.405Z,97704.82
2019-03-13T10:17:58.326Z,97707.98
2019-03-13T10:22:14.686Z,97705.15
2019-03-13T10:26:22.040Z,97684.02
2019-03-13T10:30:27.481Z,97709.13
2019-03-13T10:34:35.405Z,97710.73
2019-03-13T10:38:42.742Z,97707.70
2019-03-13T10:42:50.150Z,97704.94
2019-03-13T10:46:58.038Z,97706.15
2019-03-13T10:51:21.126Z,97701.86
2019-03-13T10:55:31.121Z,97709.83
2019-03-13T10:59:48.319Z,97732.42
2019-03-13T11:04:10.824Z,97712.05
2019-03-13T11:08:16.326Z,97706.37
2019-03-13T11:12:23.658Z,97712.44
2019-03-13T11:16:30.979Z,97694.83
2019-03-13T11:20:41.310Z,97701.80
2019-03-13T11:24:57.780Z,97695.73
2019-03-13T11:29:05.187Z,97695.27
2019-03-13T11:33:12.599Z,97684.30
2019-03-13T11:37:22.492Z,97701.85
2019-03-13T11:41:27.968Z,97701.20
2019-03-13T11:45:53.643Z,97704.16
2019-03-13T11:50:01.033Z,97714.28
2019-03-13T11:54:09.968Z,97718.20
2019-03-13T11:58:20.069Z,97691.48
2019-03-13T12:02:28.352Z,97686.81
2019-03-13T12:06:35.657Z,97670.70
2019-03-13T12:10:45.767Z,97666.56
2019-03-13T12:14:53.224Z,97657.25
2019-03-13T12:19:12.438Z,97651.00
2019-03-13T12:23:18.921Z,97658.23
2019-03-13T12:27:33.124Z,97641.41
2019-03-13T12:31:38.553Z,97639.61
2019-03-13T12:35:49.121Z,97656.61
2019-03-13T12:39:59.244Z,97646.77
2019-03-13T12:44:10.817Z,97634.37
2019-03-13T12:48:34.223Z,97631.64
2019-03-13T12:52:50.473Z,97626.96
2019-03-13T12:57:06.616Z,97604.84
2019-03-13T13:01:12.061Z,97595.77
2019-03-13T13:05:26.230Z,97601.88
2019-03-13T13:09:34.416Z,97623.11
2019-03-13T13:13:47.480Z,97645.86
2019-03-13T13:18:11.276Z,97663.38
2019-03-13T13:22:17.049Z,97675.13
2019-03-13T13:26:22.944Z,97666.14
2019-03-13T13:30:28.782Z,97645.97
2019-03-13T13:34:34.478Z,97629.90
2019-03-13T13:38:40.176Z,97628.70
2019-03-13T13:42:45.958Z,97642.98
2019-03-13T13:46:51.717Z,97623.57
2019-03-13T13:50:57.412Z,97624.60
2019-03-13T13:55:03.125Z,97617.66
2019-03-13T13:59:08.820Z,97612.14
2019-03-13T14:03:14.522Z,97625.22
2019-03-13T14:07:20.230Z,97631.58
2019-03-13T14:11:25.937Z,97618.17
2019-03-13T14:15:31.635Z,97607.28
2019-03-13T14:19:38.314Z,97597.33
2019-03-13T14:23:43.991Z,97599.86
2019-03-13T14:27:49.777Z,97588.31
2019-03-13T14:31:55.464Z,97588.84
2019-03-13T14:36:01.143Z,97580.03
2019-03-13T14:40:19.317Z,97580.41
2019-03-13T14:44:24.992Z,97582.75
2019-03-13T14:48:30.761Z,97578.14
2019-03-13T14:52:36.485Z,97587.27
2019-03-13T14:56:42.183Z,97578.79
2019-03-13T15:00:48.022Z,97582.00
2019-03-13T15:04:53.702Z,97575.98
2019-03-13T15:08:59.425Z,97587.64
2019-03-13T15:13:06.807Z,97578.25
2019-03-13T15:17:13.479Z,97591.03
2019-03-13T15:21:19.171Z,97585.56
2019-03-13T15:25:24.877Z,97590.63
2019-03-13T15:29:30.636Z,97586.87
2019-03-13T15:33:36.323Z,97577.66
2019-03-13T15:37:42.341Z,97580.80
2019-03-13T15:41:48.018Z,97578.84
2019-03-13T15:45:53.770Z,97592.69
2019-03-13T15:49:59.473Z,97583.66
2019-03-13T15:54:05.152Z,97577.64
2019-03-13T15:58:10.853Z,97571.42
2019-03-13T16:02:16.569Z,97570.95
2019-03-13T16:06:22.295Z,97571.45
2019-03-13T16:10:28.005Z,97552.58
2019-03-13T16:14:33.700Z,97554.05
2019-03-13T16:18:39.377Z,97566.98
2019-03-13T16:23:03.382Z,97561.59
2019-03-13T16:27:09.071Z,97562.44
2019-03-13T16:31:14.939Z,97554.12
2019-03-13T16:35:20.627Z,97555.25
2019-03-13T16:39:26.299Z,97537.85
2019-03-13T16:43:31.992Z,97546.70
2019-03-13T16:47:37.737Z,97549.55
2019-03-13T16:51:43.475Z,97542.64
2019-03-13T16:55:49.270Z,97544.17
2019-03-13T17:00:00.441Z,97540.64
2019-03-13T17:04:02.409Z,97546.91
2019-03-13T17:08:08.185Z,97555.74
2019-03-13T17:12:13.873Z,97559.03
2019-03-13T17:16:19.625Z,97560.45
2019-03-13T17:20:36.916Z,97578.94
2019-03-13T17:24:42.579Z,97578.47
2019-03-13T17:28:50.382Z,97568.80
2019-03-13T17:32:56.127Z,97565.05
2019-03-13T17:37:01.839Z,97567.70
2019-03-13T17:41:07.564Z,97554.47
2019-03-13T17:45:16.976Z,97538.80
2019-03-13T17:49:22.678Z,97534.21
2019-03-13T17:53:28.411Z,97533.19
2019-03-13T17:57:34.144Z,97532.59
2019-03-13T18:01:39.818Z,97536.94
2019-03-13T18:05:45.593Z,97535.27
2019-03-13T18:09:51.366Z,97545.77
2019-03-13T18:13:57.059Z,97550.25
2019-03-13T18:18:03.825Z,97553.19
2019-03-13T18:22:09.490Z,97554.30
2019-03-13T18:26:16.505Z,97552.67
2019-03-13T18:35:41.912Z,97547.77
2019-03-13T18:39:47.583Z,97545.88
2019-03-13T18:43:53.466Z,97559.70
2019-03-13T18:48:04.953Z,97572.53
2019-03-13T18:53:10.002Z,97577.09
2019-03-13T18:57:21.574Z,97596.09
2019-03-13T19:01:27.302Z,97602.47
2019-03-13T19:05:40.041Z,97614.80
2019-03-13T19:09:45.781Z,97625.21
2019-03-13T19:13:51.477Z,97628.89
2019-03-13T19:18:00.467Z,97619.52
2019-03-13T19:22:06.057Z,97612.64
2019-03-13T19:26:11.900Z,97621.64
2019-03-13T19:30:30.750Z,97616.84
2019-03-13T19:34:36.415Z,97613.72
2019-03-13T19:38:42.112Z,97617.48
2019-03-13T19:42:49.629Z,97616.05
2019-03-13T19:46:55.364Z,97627.59
2019-03-13T19:51:01.027Z,97643.78
2019-03-13T19:55:13.523Z,97648.31
2019-03-13T19:59:19.344Z,97652.78
2019-03-13T20:03:25.142Z,97661.36
2019-03-13T20:07:30.940Z,97645.66
2019-03-13T20:11:36.607Z,97638.13
2019-03-13T20:15:43.359Z,97647.33
2019-03-13T20:19:52.105Z,97624.52
2019-03-13T20:23:56.645Z,97624.97
2019-03-13T20:28:02.329Z,97616.89
2019-03-13T20:32:08.110Z,97625.45
2019-03-13T20:36:15.537Z,97626.47
2019-03-13T20:40:26.279Z,97651.19
2019-03-13T20:44:32.045Z,97637.22
2019-03-13T20:48:37.780Z,97638.74
2019-03-13T20:52:45.738Z,97635.83
2019-03-13T20:56:51.116Z,97640.84
2019-03-13T21:00:56.821Z,97631.34
2019-03-13T21:05:02.577Z,97636.92
2019-03-13T21:09:09.228Z,97629.03
2019-03-13T21:13:16.493Z,97637.14
2019-03-13T21:17:22.419Z,97641.08
2019-03-13T21:21:28.106Z,97637.37
2019-03-13T21:25:33.853Z,97644.60
2019-03-13T21:29:39.539Z,97651.95
2019-03-13T21:33:45.325Z,97641.52
2019-03-13T21:37:51.154Z,97646.54
2019-03-13T21:41:56.915Z,97652.50
2019-03-13T21:46:02.610Z,97670.45
2019-03-13T21:50:12.272Z,97688.69
2019-03-13T21:54:17.958Z,97679.20
2019-03-13T21:58:23.652Z,97692.98
2019-03-13T22:02:33.064Z,97699.67
2019-03-13T22:06:36.774Z,97706.70
2019-03-13T22:10:42.543Z,97709.41
2019-03-13T22:14:48.238Z,97718.20
2019-03-13T22:18:53.971Z,97718.73
2019-03-13T22:22:59.809Z,97713.98
2019-03-13T22:27:05.553Z,97707.38
2019-03-13T22:31:11.305Z,97710.05
2019-03-13T22:35:19.099Z,97718.72
2019-03-13T22:39:24.798Z,97729.41
2019-03-13T22:43:30.482Z,97732.83
2019-03-13T22:47:42.492Z,97733.78
2019-03-13T22:51:43.536Z,97739.83
2019-03-13T22:55:50.862Z,97748.78
2019-03-13T22:59:56.601Z,97757.25
2019-03-13T23:04:02.502Z,97773.63
2019-03-13T23:08:08.335Z,97777.70
2019-03-13T23:12:14.181Z,97782.89
2019-03-13T23:16:19.863Z,97792.48
2019-03-13T23:20:25.586Z,97786.42
2019-03-13T23:24:31.266Z,97779.34
2019-03-13T23:28:37.020Z,97792.06
2019-03-13T23:32:42.749Z,97790.25
2019-03-13T23:36:48.460Z,97802.24
2019-03-13T23:40:54.145Z,97807.94
2019-03-13T23:45:01.099Z,97815.91
2019-03-13T23:49:06.815Z,97819.52
2019-03-13T23:53:12.499Z,97820.97
2019-03-13T23:57:19.175Z,97823.23
